Aviation Digital Data Service (ADDS)

Output produced by TAFs form (0123 UTC 27 April 2017)
found at http://www.aviationweather.gov/adds/tafs/
 
METAR text: RJOW 270100Z 01004KT 280V060 9999 FEW025 BKN/// 15/09 Q1010
Conditions at: RJOW (IWAMI , JP) observed 0100 UTC 27 April 2017
Temperature: 15.0°C (59°F)
Dewpoint: 9.0°C (48°F) [RH = 67%]
Pressure (altimeter): 29.82 inches Hg (1010.0 mb)
Winds: from the N (10 degrees) at 5 MPH (4 knots; 2.1 m/s)
Visibility: 6 or more miles (10+ km)
Ceiling: at least 12,000 feet AGL
Clouds: few clouds at 2500 feet AGL
Weather: no significant weather observed at this time